Time;durP1;ratioP1;P1;durP2;ratioP2;P2;SDS_P1;SDS_P2;PMS_P1;PMS_P2;Temp;Humidity;BMP_temperature;BMP_pressure;BME280_temperature;BME280_humidity;BME280_pressure;Samples;Min_cycle;Max_cycle;Signal;HPM_P1;HPM_P2
2021/09/27 00:00:51;;;;;;;12.83;11.63;;;17.20;1.00;;;;;;5064609;28;20495;-88
2021/09/27 00:03:21;;;;;;;10.20;9.30;;;17.10;1.00;;;;;;5065018;28;20455;-87
2021/09/27 00:05:49;;;;;;;10.60;9.60;;;17.10;1.00;;;;;;5060159;28;20477;-88
2021/09/27 00:08:19;;;;;;;12.30;11.20;;;17.10;1.00;;;;;;5065769;28;20471;-87
2021/09/27 00:10:51;;;;;;;10.90;9.80;;;17.10;1.00;;;;;;5069651;28;20454;-87
2021/09/27 00:13:21;;;;;;;10.70;9.80;;;17.10;1.00;;;;;;5065960;28;20455;-87
2021/09/27 00:15:50;;;;;;;10.77;9.77;;;17.10;1.00;;;;;;5067168;28;20570;-87
2021/09/27 00:18:18;;;;;;;11.97;10.93;;;17.10;1.00;;;;;;5061591;28;20416;-87
2021/09/27 00:20:48;;;;;;;11.03;9.93;;;17.00;1.00;;;;;;5061151;28;20455;-87
2021/09/27 00:23:16;;;;;;;12.47;11.37;;;17.00;1.00;;;;;;5064831;28;20448;-87
2021/09/27 00:25:44;;;;;;;11.77;10.73;;;17.00;1.00;;;;;;5069160;28;20423;-87
2021/09/27 00:28:12;;;;;;;12.00;11.00;;;17.00;1.00;;;;;;5058429;28;20467;-87
2021/09/27 00:30:41;;;;;;;11.30;10.40;;;16.90;1.00;;;;;;5066023;28;20474;-87
2021/09/27 00:33:08;;;;;;;13.27;11.90;;;16.90;1.00;;;;;;5065538;28;20466;-87
2021/09/27 00:35:39;;;;;;;11.47;10.53;;;16.90;1.00;;;;;;5045990;28;20427;-88
2021/09/27 00:38:08;;;;;;;11.33;10.33;;;16.90;1.00;;;;;;5050277;28;20455;-87
2021/09/27 00:40:39;;;;;;;12.90;11.73;;;16.90;1.00;;;;;;5065514;28;20529;-87
2021/09/27 00:43:06;;;;;;;11.97;10.97;;;16.90;1.00;;;;;;5059474;28;20451;-87
2021/09/27 00:45:37;;;;;;;11.87;10.87;;;16.80;1.00;;;;;;5066782;28;20460;-87
2021/09/27 00:48:09;;;;;;;12.00;11.00;;;16.80;1.00;;;;;;5067845;28;20468;-86
2021/09/27 00:50:40;;;;;;;13.43;12.27;;;16.80;1.00;;;;;;5073105;28;20446;-86
2021/09/27 00:53:16;;;;;;;12.57;11.47;;;16.80;1.00;;;;;;5070972;28;20440;-86
2021/09/27 00:55:43;;;;;;;16.13;13.03;;;16.80;1.00;;;;;;5070270;28;20494;-86
2021/09/27 00:58:11;;;;;;;12.63;11.63;;;16.80;1.00;;;;;;5052895;28;20415;-86
2021/09/27 01:00:38;;;;;;;12.00;10.97;;;16.80;1.00;;;;;;5057545;28;20519;-87
2021/09/27 01:03:06;;;;;;;12.67;11.57;;;16.70;1.00;;;;;;5083898;28;20455;-88
2021/09/27 01:05:37;;;;;;;12.67;11.67;;;16.70;1.00;;;;;;5100576;28;20466;-87
2021/09/27 01:08:15;;;;;;;13.93;12.50;;;16.70;1.00;;;;;;5092438;28;20461;-86
2021/09/27 01:11:14;;;;;;;13.73;12.53;;;16.70;1.00;;;;;;5088353;28;20462;-86
2021/09/27 01:14:03;;;;;;;11.93;10.77;;;16.70;1.00;;;;;;5090358;28;20438;-88
2021/09/27 01:16:39;;;;;;;13.47;12.17;;;16.70;1.00;;;;;;5089397;28;20427;-88
2021/09/27 01:19:34;;;;;;;12.60;11.53;;;16.60;1.00;;;;;;5093979;28;20490;-88
2021/09/27 01:22:06;;;;;;;12.50;11.40;;;16.60;1.00;;;;;;5097884;28;20446;-88
2021/09/27 01:25:10;;;;;;;12.37;11.17;;;16.60;1.00;;;;;;5094732;28;20400;-89
2021/09/27 01:28:01;;;;;;;11.77;10.67;;;16.60;1.00;;;;;;5094465;28;20441;-87
2021/09/27 01:30:51;;;;;;;12.60;11.40;;;16.60;1.00;;;;;;5072209;28;20415;-87
2021/09/27 01:33:24;;;;;;;12.60;11.50;;;16.60;1.00;;;;;;5071841;28;20490;-87
2021/09/27 01:36:03;;;;;;;11.23;10.33;;;16.60;1.00;;;;;;5087594;28;20419;-87
2021/09/27 01:41:46;;;;;;;12.97;11.67;;;16.70;1.00;;;;;;5092446;28;20425;-87
2021/09/27 01:44:18;;;;;;;12.50;11.30;;;16.70;1.00;;;;;;5088013;28;20490;-87
2021/09/27 01:46:51;;;;;;;13.30;11.97;;;16.70;1.00;;;;;;5073000;28;22445;-87
2021/09/27 01:49:29;;;;;;;12.30;11.30;;;16.80;1.00;;;;;;5088407;28;20418;-87
2021/09/27 01:52:03;;;;;;;13.50;12.20;;;16.80;1.00;;;;;;5091563;28;20407;-88
2021/09/27 01:54:37;;;;;;;10.83;9.93;;;16.80;1.00;;;;;;5090113;28;20506;-88
2021/09/27 01:57:12;;;;;;;11.57;10.57;;;16.80;1.00;;;;;;5088123;28;20403;-89
2021/09/27 01:59:53;;;;;;;11.93;10.80;;;16.90;1.00;;;;;;5074240;28;20423;-89
2021/09/27 02:02:26;;;;;;;12.00;11.00;;;16.90;1.00;;;;;;5086832;28;20399;-88
2021/09/27 02:05:02;;;;;;;12.10;11.10;;;17.00;1.00;;;;;;5089567;28;20487;-89
2021/09/27 02:07:35;;;;;;;11.60;10.60;;;17.00;1.00;;;;;;5091417;28;20422;-88
2021/09/27 02:10:08;;;;;;;11.17;10.17;;;17.10;1.00;;;;;;5071496;28;20418;-90
2021/09/27 02:12:45;;;;;;;11.87;10.77;;;17.10;1.00;;;;;;5074910;28;20408;-89
2021/09/27 02:15:20;;;;;;;10.53;9.63;;;17.10;1.00;;;;;;5077828;28;20410;-89
2021/09/27 02:17:55;;;;;;;11.13;10.23;;;17.10;1.00;;;;;;5073398;28;20421;-89
2021/09/27 02:20:33;;;;;;;11.70;10.70;;;17.10;1.00;;;;;;5091608;28;20412;-89
2021/09/27 02:23:09;;;;;;;11.53;10.37;;;17.10;1.00;;;;;;5090787;28;20491;-90
2021/09/27 02:25:42;;;;;;;11.17;10.17;;;17.10;1.00;;;;;;5086177;28;20472;-88
2021/09/27 02:28:12;;;;;;;10.53;9.63;;;17.00;1.00;;;;;;5079569;28;20407;-88
2021/09/27 02:30:48;;;;;;;11.10;10.20;;;17.10;1.00;;;;;;5086180;28;20546;-89
2021/09/27 02:33:22;;;;;;;11.73;10.63;;;17.10;1.00;;;;;;5089363;28;20436;-88
2021/09/27 02:36:04;;;;;;;11.10;10.00;;;17.10;1.00;;;;;;5087057;28;20407;-89
2021/09/27 02:38:40;;;;;;;10.43;9.53;;;17.20;1.00;;;;;;5087391;28;20475;-88
2021/09/27 02:41:18;;;;;;;12.60;11.40;;;17.20;1.00;;;;;;5092396;28;20418;-88
2021/09/27 02:43:45;;;;;;;12.00;10.47;;;17.20;1.00;;;;;;5090638;28;20417;-88
2021/09/27 02:46:12;;;;;;;11.07;10.07;;;17.10;1.00;;;;;;5093599;28;20407;-88
2021/09/27 02:48:41;;;;;;;33.23;30.40;;;17.10;1.00;;;;;;5070458;28;20445;-89
2021/09/27 02:51:15;;;;;;;11.77;10.70;;;17.10;1.00;;;;;;5087273;28;20414;-88
2021/09/27 02:53:46;;;;;;;11.77;10.70;;;17.10;1.00;;;;;;5091052;28;20408;-88
2021/09/27 02:56:40;;;;;;;10.90;10.00;;;17.10;1.00;;;;;;5094744;28;20419;-88
2021/09/27 02:59:19;;;;;;;11.30;10.23;;;17.20;1.00;;;;;;5089150;28;20399;-88
2021/09/27 03:01:51;;;;;;;11.23;10.27;;;17.10;1.00;;;;;;5076521;28;20415;-88
2021/09/27 03:04:28;;;;;;;10.97;9.90;;;17.10;1.00;;;;;;5088472;28;20396;-88
2021/09/27 03:07:12;;;;;;;11.43;10.47;;;17.10;1.00;;;;;;5074009;28;20512;-87
2021/09/27 03:09:49;;;;;;;11.43;10.43;;;17.00;1.00;;;;;;5079821;28;20570;-88
2021/09/27 03:12:31;;;;;;;11.20;10.20;;;17.10;1.00;;;;;;5089510;28;20450;-88
2021/09/27 03:15:29;;;;;;;11.50;10.60;;;17.10;1.00;;;;;;5090605;28;20462;-89
2021/09/27 03:18:05;;;;;;;10.90;9.90;;;17.10;1.00;;;;;;5094738;28;20475;-88
2021/09/27 03:20:45;;;;;;;10.30;9.50;;;17.10;1.00;;;;;;5093365;28;20422;-87
2021/09/27 03:23:28;;;;;;;11.87;10.90;;;17.10;1.00;;;;;;5094663;28;20522;-88
2021/09/27 03:26:07;;;;;;;13.40;10.53;;;17.10;1.00;;;;;;5096079;28;20423;-88
2021/09/27 03:28:44;;;;;;;12.33;11.23;;;17.10;1.00;;;;;;5093353;28;20443;-88
2021/09/27 03:31:18;;;;;;;11.67;10.57;;;17.10;1.00;;;;;;5090008;28;20474;-87
2021/09/27 03:33:58;;;;;;;11.20;10.27;;;17.10;1.00;;;;;;5093924;28;20426;-89
2021/09/27 03:36:48;;;;;;;12.73;11.67;;;17.20;1.00;;;;;;5069346;28;20485;-88
2021/09/27 03:39:31;;;;;;;12.43;11.37;;;17.10;1.00;;;;;;5098882;28;20472;-87
2021/09/27 03:42:05;;;;;;;12.40;11.20;;;17.10;1.00;;;;;;5092678;28;20419;-89
2021/09/27 03:44:40;;;;;;;19.57;17.67;;;17.10;1.00;;;;;;5075116;28;20483;-89
2021/09/27 03:47:15;;;;;;;12.53;11.23;;;17.10;1.00;;;;;;5088917;28;20458;-89
2021/09/27 03:49:48;;;;;;;11.83;10.77;;;17.10;1.00;;;;;;5093075;28;20465;-88
2021/09/27 03:52:22;;;;;;;12.27;11.07;;;17.10;1.00;;;;;;5092600;28;20412;-87
2021/09/27 03:55:02;;;;;;;13.33;12.10;;;17.10;1.00;;;;;;5078864;28;20510;-88
2021/09/27 03:57:35;;;;;;;13.03;11.73;;;17.20;1.00;;;;;;5073917;28;20435;-87
2021/09/27 04:00:08;;;;;;;12.77;11.57;;;17.10;1.00;;;;;;5070052;28;20495;-89
2021/09/27 04:02:42;;;;;;;12.23;11.13;;;17.20;1.00;;;;;;5070396;28;20403;-88
2021/09/27 04:05:35;;;;;;;13.83;12.33;;;17.10;1.00;;;;;;5090398;28;20410;-89
2021/09/27 04:08:08;;;;;;;13.90;12.50;;;17.20;1.00;;;;;;5090706;28;20459;-89
2021/09/27 04:11:04;;;;;;;12.53;11.07;;;17.20;1.00;;;;;;5093623;28;20436;-88
2021/09/27 04:13:39;;;;;;;11.80;10.80;;;17.20;1.00;;;;;;5088759;28;20502;-88
2021/09/27 04:16:29;;;;;;;14.10;12.73;;;17.20;1.00;;;;;;5088195;28;20418;-88
2021/09/27 04:19:06;;;;;;;11.53;10.50;;;17.20;1.00;;;;;;5067624;28;20556;-90
2021/09/27 04:21:47;;;;;;;13.07;11.93;;;17.20;1.00;;;;;;5071400;28;20415;-82
2021/09/27 04:24:45;;;;;;;12.00;10.77;;;17.30;1.00;;;;;;5072118;28;20426;-83
2021/09/27 04:27:26;;;;;;;13.43;12.23;;;17.20;1.00;;;;;;5072790;28;20569;-82
2021/09/27 04:30:50;;;;;;;12.03;10.83;;;17.20;1.00;;;;;;5083497;28;20453;-81
2021/09/27 04:33:39;;;;;;;12.00;10.90;;;17.20;1.00;;;;;;5026572;28;20451;-79
2021/09/27 04:36:29;;;;;;;13.20;12.00;;;17.20;1.00;;;;;;5037247;28;20452;-78
2021/09/27 04:38:59;;;;;;;13.03;11.80;;;17.20;1.00;;;;;;5060276;28;20528;-78
2021/09/27 04:41:53;;;;;;;14.87;13.57;;;17.20;1.00;;;;;;5038476;28;20439;-78
2021/09/27 04:44:33;;;;;;;12.73;11.63;;;17.30;1.00;;;;;;5063084;28;20434;-78
2021/09/27 04:47:16;;;;;;;12.53;11.37;;;17.20;1.00;;;;;;5058390;28;20991;-77
2021/09/27 04:50:11;;;;;;;11.87;10.77;;;17.20;1.00;;;;;;5034923;28;20455;-78
2021/09/27 04:53:09;;;;;;;11.50;10.60;;;17.30;1.00;;;;;;5055776;28;20460;-78
2021/09/27 04:55:59;;;;;;;12.17;11.07;;;17.20;1.00;;;;;;5058307;28;20479;-80
2021/09/27 04:59:02;;;;;;;12.83;11.73;;;17.20;1.00;;;;;;5043630;28;20521;-80
2021/09/27 05:02:00;;;;;;;13.40;12.20;;;17.20;1.00;;;;;;5056812;28;20423;-77
2021/09/27 05:04:51;;;;;;;13.97;12.17;;;17.10;1.00;;;;;;5055453;28;20509;-80
2021/09/27 05:07:53;;;;;;;13.30;12.07;;;17.10;1.00;;;;;;5054707;28;20848;-80
2021/09/27 05:10:49;;;;;;;12.13;10.83;;;17.10;1.00;;;;;;5036987;28;20455;-80
2021/09/27 05:13:46;;;;;;;11.40;10.37;;;17.10;1.00;;;;;;5028858;28;20461;-78
2021/09/27 05:16:38;;;;;;;14.63;12.00;;;17.10;1.00;;;;;;5032990;28;20462;-78
2021/09/27 05:19:47;;;;;;;11.83;10.73;;;17.10;1.00;;;;;;5027347;28;20485;-78
2021/09/27 05:22:54;;;;;;;12.90;11.80;;;17.10;1.00;;;;;;5028614;28;20567;-78
2021/09/27 05:25:54;;;;;;;12.97;11.57;;;17.10;1.00;;;;;;5047117;28;20478;-79
2021/09/27 05:28:34;;;;;;;12.60;11.33;;;17.10;1.00;;;;;;5001819;28;20557;-77
2021/09/27 05:31:12;;;;;;;16.53;14.00;;;17.10;1.00;;;;;;5047761;28;20443;-79
2021/09/27 05:33:48;;;;;;;24.63;22.00;;;17.20;1.00;;;;;;5045699;28;20475;-79
2021/09/27 05:36:35;;;;;;;11.53;10.60;;;17.30;1.00;;;;;;5051858;28;20550;-81
2021/09/27 05:42:16;;;;;;;12.63;11.43;;;17.30;1.00;;;;;;5042916;28;20466;-78
2021/09/27 05:45:06;;;;;;;13.13;11.73;;;17.30;1.00;;;;;;5051332;28;20460;-78
2021/09/27 05:47:51;;;;;;;14.37;12.83;;;17.40;1.00;;;;;;5036480;28;20520;-79
2021/09/27 05:50:43;;;;;;;12.90;11.60;;;17.40;1.00;;;;;;5032391;28;20473;-79
2021/09/27 05:53:36;;;;;;;13.70;12.40;;;17.40;1.00;;;;;;5052785;28;20426;-79
2021/09/27 06:03:38;;;;;;;13.87;12.50;;;17.40;1.00;;;;;;5049874;28;20486;-81
2021/09/27 06:09:41;;;;;;;13.93;12.63;;;17.60;1.00;;;;;;5009416;28;20463;-79
2021/09/27 06:12:54;;;;;;;13.10;11.80;;;17.70;1.00;;;;;;5055716;28;20531;-78
2021/09/27 06:19:06;;;;;;;13.20;11.90;;;17.60;1.00;;;;;;5052820;28;20446;-78
2021/09/27 06:25:08;;;;;;;11.97;10.63;;;17.60;1.00;;;;;;5044754;28;20479;-78
2021/09/27 06:27:47;;;;;;;11.83;10.70;;;17.70;1.00;;;;;;5057798;28;21653;-79
2021/09/27 06:30:22;;;;;;;14.37;12.37;;;17.70;1.00;;;;;;5051426;28;20511;-78
2021/09/27 06:32:56;;;;;;;11.80;10.80;;;17.90;1.00;;;;;;5031753;28;20530;-78
2021/09/27 06:35:27;;;;;;;11.70;10.50;;;18.00;1.00;;;;;;5029064;28;20532;-79
2021/09/27 06:37:55;;;;;;;12.77;11.40;;;18.10;1.00;;;;;;5051465;28;20468;-78
2021/09/27 06:40:27;;;;;;;13.53;12.33;;;17.90;1.00;;;;;;5039175;28;20463;-80
2021/09/27 06:42:58;;;;;;;11.73;10.63;;;18.00;1.00;;;;;;5057811;28;20482;-79
2021/09/27 06:45:38;;;;;;;15.10;12.47;;;18.10;1.00;;;;;;5037000;28;20541;-79
2021/09/27 06:51:25;;;;;;;14.57;13.27;;;18.20;1.00;;;;;;5052631;28;20448;-78
2021/09/27 06:53:54;;;;;;;13.77;12.33;;;18.20;1.00;;;;;;5052892;28;20436;-78
2021/09/27 06:56:27;;;;;;;12.43;10.93;;;18.30;1.00;;;;;;5058452;28;20986;-78
2021/09/27 06:59:02;;;;;;;11.60;10.60;;;18.40;1.00;;;;;;5037552;28;21425;-77
2021/09/27 07:01:34;;;;;;;12.17;11.07;;;18.40;1.00;;;;;;5063548;28;20413;-78
2021/09/27 07:04:02;;;;;;;13.77;12.57;;;18.50;1.00;;;;;;5062545;28;20467;-82
2021/09/27 07:06:38;;;;;;;11.70;10.60;;;18.60;1.00;;;;;;5041328;28;20603;-78
2021/09/27 07:09:05;;;;;;;12.83;11.73;;;18.60;1.00;;;;;;5052403;28;20463;-84
2021/09/27 07:12:10;;;;;;;12.33;11.13;;;18.70;1.00;;;;;;5035080;28;20420;-80
2021/09/27 07:14:50;;;;;;;12.20;11.10;;;18.80;1.00;;;;;;5043406;28;20450;-80
2021/09/27 07:17:44;;;;;;;15.63;14.23;;;18.80;1.00;;;;;;5070738;28;20459;-77
2021/09/27 07:20:18;;;;;;;12.47;11.37;;;18.80;1.00;;;;;;5062836;28;21323;-79
2021/09/27 07:22:57;;;;;;;13.10;11.90;;;19.00;1.00;;;;;;5046946;28;20465;-78
2021/09/27 07:25:30;;;;;;;12.00;10.90;;;19.00;1.00;;;;;;5059239;28;21220;-79
2021/09/27 07:28:02;;;;;;;15.83;14.43;;;19.10;1.00;;;;;;5066030;28;20462;-80
2021/09/27 07:30:33;;;;;;;12.20;11.10;;;19.20;1.00;;;;;;5060664;28;20464;-81
2021/09/27 07:33:02;;;;;;;11.67;10.47;;;19.30;1.00;;;;;;5046602;28;20514;-81
2021/09/27 07:35:38;;;;;;;12.40;11.20;;;19.40;1.00;;;;;;5058490;28;21166;-79
2021/09/27 07:38:08;;;;;;;12.10;11.03;;;19.50;1.00;;;;;;5041997;28;20480;-79
2021/09/27 07:40:56;;;;;;;11.40;10.30;;;19.40;1.00;;;;;;5043399;28;20447;-79
2021/09/27 07:43:27;;;;;;;11.10;10.10;;;19.50;1.00;;;;;;5051701;28;20468;-79
2021/09/27 07:46:09;;;;;;;14.17;10.83;;;19.50;1.00;;;;;;5041044;28;20469;-79
2021/09/27 07:48:39;;;;;;;11.70;10.60;;;19.70;1.00;;;;;;5058613;28;20476;-80
2021/09/27 07:51:12;;;;;;;13.27;11.97;;;19.80;1.00;;;;;;5056447;28;20463;-79
2021/09/27 07:53:43;;;;;;;12.10;10.97;;;19.80;1.00;;;;;;5057532;28;20581;-78
2021/09/27 07:56:13;;;;;;;11.10;10.10;;;19.80;1.00;;;;;;5060515;28;20882;-78
2021/09/27 07:58:52;;;;;;;12.97;11.77;;;19.90;1.00;;;;;;5038889;28;20469;-80
2021/09/27 08:01:20;;;;;;;11.83;10.90;;;20.10;1.00;;;;;;5060804;28;20433;-79
2021/09/27 08:03:55;;;;;;;12.10;11.00;;;20.20;1.00;;;;;;5057417;28;20445;-78
2021/09/27 08:06:23;;;;;;;11.53;10.53;;;20.20;1.00;;;;;;5053316;28;21208;-78
2021/09/27 08:08:53;;;;;;;11.70;10.70;;;20.10;1.00;;;;;;5056045;28;21366;-77
2021/09/27 08:11:23;;;;;;;13.10;11.50;;;20.10;1.00;;;;;;5056997;28;20558;-78
2021/09/27 08:13:56;;;;;;;13.53;12.33;;;20.10;1.00;;;;;;5039112;28;20454;-78
2021/09/27 08:16:26;;;;;;;12.60;11.40;;;20.20;1.00;;;;;;5052694;28;20429;-78
2021/09/27 08:18:59;;;;;;;12.83;11.57;;;20.20;1.00;;;;;;5057345;28;20459;-79
2021/09/27 08:21:36;;;;;;;13.67;12.37;;;20.40;1.00;;;;;;5054880;28;20541;-78
2021/09/27 08:24:12;;;;;;;12.07;10.83;;;20.50;1.00;;;;;;5043889;28;20424;-78
2021/09/27 08:26:40;;;;;;;12.73;11.30;;;20.50;1.00;;;;;;5038386;28;20458;-79
2021/09/27 08:29:26;;;;;;;12.73;11.47;;;20.60;1.00;;;;;;5059595;28;20462;-80
2021/09/27 08:31:53;;;;;;;13.00;11.80;;;20.50;1.00;;;;;;5055726;28;20461;-80
2021/09/27 08:34:20;;;;;;;11.27;10.27;;;20.60;1.00;;;;;;5054788;28;20473;-81
2021/09/27 08:36:49;;;;;;;11.23;10.20;;;20.70;1.00;;;;;;5042751;28;20473;-79
2021/09/27 08:39:16;;;;;;;12.33;11.23;;;20.70;1.00;;;;;;5060311;28;20449;-80
2021/09/27 08:41:52;;;;;;;12.50;11.43;;;20.70;1.00;;;;;;5043223;28;20424;-80
2021/09/27 08:44:41;;;;;;;12.10;11.00;;;20.70;1.00;;;;;;5047961;28;20464;-79
2021/09/27 08:47:17;;;;;;;13.70;11.17;;;20.80;1.00;;;;;;5056757;28;20473;-80
2021/09/27 08:50:07;;;;;;;10.77;9.77;;;20.80;1.00;;;;;;5061380;28;20471;-79
2021/09/27 08:52:38;;;;;;;12.53;11.37;;;20.90;1.00;;;;;;5043007;28;20550;-80
2021/09/27 08:55:17;;;;;;;11.33;10.10;;;21.00;1.00;;;;;;5029619;28;20524;-79
2021/09/27 08:57:55;;;;;;;12.60;11.40;;;21.10;1.00;;;;;;5057101;28;20463;-79
2021/09/27 09:00:51;;;;;;;11.63;10.20;;;21.20;1.00;;;;;;5056449;28;20581;-80
2021/09/27 09:03:23;;;;;;;12.70;11.60;;;21.20;1.00;;;;;;5056784;28;21465;-79
2021/09/27 09:05:56;;;;;;;13.40;12.20;;;21.10;1.00;;;;;;5042983;28;20462;-81
2021/09/27 09:08:35;;;;;;;14.37;13.07;;;20.90;1.00;;;;;;5040975;28;20469;-81
2021/09/27 09:11:07;;;;;;;14.33;13.03;;;20.70;1.00;;;;;;5064427;28;20571;-81
2021/09/27 09:13:43;;;;;;;12.10;11.03;;;20.70;1.00;;;;;;5058211;28;20476;-81
2021/09/27 09:16:18;;;;;;;11.00;10.10;;;20.70;1.00;;;;;;5050627;28;20461;-81
2021/09/27 09:18:57;;;;;;;12.20;11.00;;;20.80;1.00;;;;;;5051706;28;20468;-80
2021/09/27 09:21:35;;;;;;;13.30;12.00;;;20.90;1.00;;;;;;5050579;28;20968;-79
2021/09/27 09:24:18;;;;;;;12.73;11.43;;;20.90;1.00;;;;;;5040060;28;20486;-80
2021/09/27 09:27:05;;;;;;;15.47;14.13;;;21.00;1.00;;;;;;5060617;28;20419;-78
2021/09/27 09:29:39;;;;;;;13.50;12.20;;;21.00;1.00;;;;;;5056487;28;21248;-79
2021/09/27 09:32:17;;;;;;;13.77;12.57;;;21.10;1.00;;;;;;5061243;28;20553;-81
2021/09/27 09:34:54;;;;;;;13.70;12.27;;;21.10;1.00;;;;;;5044862;28;20450;-78
2021/09/27 09:37:45;;;;;;;14.13;11.57;;;21.20;1.00;;;;;;5037501;28;20474;-78
2021/09/27 09:40:21;;;;;;;11.60;10.60;;;21.10;1.00;;;;;;5038564;28;20475;-78
2021/09/27 09:43:02;;;;;;;14.27;12.70;;;21.00;1.00;;;;;;5055982;28;20919;-79
2021/09/27 09:45:33;;;;;;;12.70;11.70;;;21.10;1.00;;;;;;5040277;28;20451;-77
2021/09/27 09:48:17;;;;;;;13.07;11.87;;;21.20;1.00;;;;;;5056766;28;20474;-78
2021/09/27 09:50:46;;;;;;;13.67;12.37;;;21.40;1.00;;;;;;5040644;28;20525;-79
2021/09/27 09:53:23;;;;;;;14.43;13.13;;;21.50;1.00;;;;;;5055679;28;20510;-78
2021/09/27 09:56:02;;;;;;;12.77;11.50;;;21.60;1.00;;;;;;5056787;28;21353;-78
2021/09/27 09:58:34;;;;;;;12.70;11.70;;;21.40;1.00;;;;;;5054998;28;20463;-78
2021/09/27 10:01:05;;;;;;;12.80;11.60;;;21.30;1.00;;;;;;5041055;28;20454;-77
2021/09/27 10:03:39;;;;;;;12.00;10.80;;;21.30;1.00;;;;;;5036968;28;20461;-79
2021/09/27 10:06:08;;;;;;;13.40;12.10;;;21.20;1.00;;;;;;5037570;28;20502;-78
2021/09/27 10:08:36;;;;;;;11.90;10.90;;;21.20;1.00;;;;;;5055127;28;20967;-78
2021/09/27 10:11:06;;;;;;;11.57;10.67;;;21.30;1.00;;;;;;5039647;28;21292;-78
2021/09/27 10:13:43;;;;;;;13.10;11.90;;;21.40;1.00;;;;;;5043813;28;21175;-79
2021/09/27 10:16:16;;;;;;;13.80;12.10;;;21.50;1.00;;;;;;5057039;28;20463;-79
2021/09/27 10:18:47;;;;;;;13.40;12.00;;;21.40;1.00;;;;;;5058578;28;20496;-79
2021/09/27 10:21:28;;;;;;;14.60;12.17;;;21.50;1.00;;;;;;5074513;28;21726;-79
2021/09/27 10:23:59;;;;;;;14.37;12.80;;;21.50;1.00;;;;;;5041213;28;20459;-80
2021/09/27 10:26:33;;;;;;;13.97;12.77;;;21.60;1.00;;;;;;5063464;28;21043;-79
2021/09/27 10:29:06;;;;;;;13.00;11.80;;;21.60;1.00;;;;;;5040765;28;21067;-78
2021/09/27 10:31:36;;;;;;;14.03;12.37;;;21.50;1.00;;;;;;5040875;28;20468;-79
2021/09/27 10:34:12;;;;;;;12.40;11.40;;;21.50;1.00;;;;;;5057963;28;20466;-78
2021/09/27 10:36:43;;;;;;;13.27;12.03;;;21.60;1.00;;;;;;5056373;28;20431;-78
2021/09/27 10:39:13;;;;;;;13.67;12.43;;;21.50;1.00;;;;;;5055888;28;20463;-79
2021/09/27 10:41:42;;;;;;;12.70;11.50;;;21.70;1.00;;;;;;5056851;28;20467;-78
2021/09/27 10:44:15;;;;;;;12.90;11.80;;;21.80;1.00;;;;;;5055895;28;20464;-78
2021/09/27 10:46:45;;;;;;;13.03;11.87;;;21.80;1.00;;;;;;5063878;28;20561;-77
2021/09/27 10:49:20;;;;;;;13.80;12.40;;;21.80;1.00;;;;;;5043986;28;20468;-77
2021/09/27 10:51:58;;;;;;;12.47;11.40;;;21.90;1.00;;;;;;5058431;28;21212;-77
2021/09/27 10:54:34;;;;;;;12.77;11.57;;;21.80;1.00;;;;;;5033102;28;20448;-78
2021/09/27 10:57:02;;;;;;;12.03;11.03;;;21.80;1.00;;;;;;5053956;28;20451;-78
2021/09/27 10:59:34;;;;;;;12.97;11.87;;;21.90;1.00;;;;;;5055550;28;21260;-78
2021/09/27 11:02:14;;;;;;;14.10;12.60;;;22.00;1.00;;;;;;5058975;28;20924;-83
2021/09/27 11:04:46;;;;;;;15.13;12.73;;;22.20;1.00;;;;;;5056103;28;20494;-78
2021/09/27 11:07:27;;;;;;;13.63;12.50;;;22.50;1.00;;;;;;5054248;28;20962;-79
2021/09/27 11:09:56;;;;;;;12.90;11.70;;;22.80;1.00;;;;;;5053289;28;21118;-78
2021/09/27 11:12:32;;;;;;;12.10;11.10;;;23.10;1.00;;;;;;5059255;28;21041;-80
2021/09/27 11:15:07;;;;;;;13.33;12.20;;;23.60;1.00;;;;;;5054827;28;20437;-78
2021/09/27 11:17:44;;;;;;;12.23;11.10;;;24.80;1.00;;;;;;5056727;28;21158;-81
2021/09/27 11:21:11;;;;;;;12.50;11.30;;;25.60;1.00;;;;;;5057031;28;20460;-79
2021/09/27 11:23:41;;;;;;;13.23;12.03;;;27.20;1.00;;;;;;5052627;28;20458;-79
2021/09/27 11:26:37;;;;;;;12.07;10.90;;;29.10;1.00;;;;;;5045788;28;21582;-79
2021/09/27 11:29:30;;;;;;;10.70;9.90;;;29.60;1.00;;;;;;5052571;28;20439;-79
2021/09/27 11:32:18;;;;;;;11.50;10.50;;;29.70;1.00;;;;;;5054540;28;20439;-80
2021/09/27 11:34:55;;;;;;;10.37;9.47;;;29.70;1.00;;;;;;5055995;28;20462;-79
2021/09/27 11:37:26;;;;;;;12.17;10.97;;;29.60;1.00;;;;;;5056615;28;20453;-78
2021/09/27 11:40:29;;;;;;;12.07;10.40;;;28.80;1.00;;;;;;5051831;28;20600;-78
2021/09/27 11:43:05;;;;;;;10.87;9.97;;;27.90;1.00;;;;;;5053036;28;20571;-78
2021/09/27 11:45:46;;;;;;;11.03;10.10;;;27.10;1.00;;;;;;5051415;28;20503;-79
2021/09/27 11:48:41;;;;;;;15.13;11.80;;;26.30;1.00;;;;;;5059152;28;20469;-80
2021/09/27 11:51:38;;;;;;;11.73;10.57;;;25.40;1.00;;;;;;5059280;28;20473;-78
2021/09/27 11:54:32;;;;;;;11.60;10.50;;;24.70;1.00;;;;;;5045933;28;20469;-82
2021/09/27 11:57:09;;;;;;;12.27;11.27;;;24.30;1.00;;;;;;5053563;28;20562;-80
2021/09/27 11:59:44;;;;;;;20.07;11.20;;;24.00;1.00;;;;;;5052458;28;22712;-78
2021/09/27 12:02:24;;;;;;;11.90;10.80;;;23.90;1.00;;;;;;5037533;28;20454;-78
2021/09/27 12:05:17;;;;;;;12.00;10.90;;;23.80;1.00;;;;;;5050378;28;20454;-77
2021/09/27 12:07:49;;;;;;;12.30;11.00;;;24.00;1.00;;;;;;5033294;28;20668;-78
2021/09/27 12:10:19;;;;;;;11.10;10.00;;;24.00;1.00;;;;;;5037947;28;20469;-78
2021/09/27 12:12:57;;;;;;;11.80;10.67;;;24.20;1.00;;;;;;5054029;28;20511;-78
2021/09/27 12:15:26;;;;;;;12.27;11.10;;;24.20;1.00;;;;;;5049455;28;20450;-79
2021/09/27 12:17:54;;;;;;;12.00;10.30;;;24.30;1.00;;;;;;5050744;28;21263;-78
2021/09/27 12:20:26;;;;;;;11.13;10.03;;;24.30;1.00;;;;;;5058321;28;20737;-79
2021/09/27 12:22:58;;;;;;;11.43;10.43;;;24.20;1.00;;;;;;5053899;28;21434;-78
2021/09/27 12:25:33;;;;;;;11.20;9.97;;;24.10;1.00;;;;;;5052530;28;20459;-77
2021/09/27 12:28:07;;;;;;;11.67;10.57;;;24.00;1.00;;;;;;5045135;28;20408;-78
2021/09/27 12:30:38;;;;;;;11.43;10.47;;;24.00;1.00;;;;;;5036498;28;20439;-79
2021/09/27 12:33:09;;;;;;;11.50;10.50;;;24.00;1.00;;;;;;5046460;28;21531;-79
2021/09/27 12:35:40;;;;;;;12.13;10.93;;;23.90;1.00;;;;;;5064447;28;20668;-79
2021/09/27 12:38:08;;;;;;;10.43;9.40;;;23.90;1.00;;;;;;5063009;28;20443;-80
2021/09/27 12:40:40;;;;;;;12.10;10.87;;;24.00;1.00;;;;;;5062819;28;20487;-78
2021/09/27 12:43:14;;;;;;;11.87;10.77;;;24.00;1.00;;;;;;5034771;28;20414;-79
2021/09/27 12:45:43;;;;;;;11.47;10.27;;;23.70;1.00;;;;;;5061830;28;20541;-79
2021/09/27 12:48:22;;;;;;;11.00;9.90;;;23.70;1.00;;;;;;5054087;28;20463;-79
2021/09/27 12:50:55;;;;;;;9.13;8.23;;;23.80;1.00;;;;;;5055189;28;20569;-79
2021/09/27 12:53:30;;;;;;;9.57;8.57;;;23.70;1.00;;;;;;5060660;28;20437;-79
2021/09/27 12:55:57;;;;;;;10.23;9.33;;;23.70;1.00;;;;;;5057831;28;20434;-77
2021/09/27 12:58:35;;;;;;;10.90;10.00;;;23.70;1.00;;;;;;5052863;28;20550;-78
2021/09/27 13:01:04;;;;;;;10.17;9.10;;;23.80;1.00;;;;;;5052758;28;20470;-79
2021/09/27 13:03:32;;;;;;;11.30;10.10;;;23.80;1.00;;;;;;5036311;28;20449;-79
2021/09/27 13:06:10;;;;;;;11.93;10.70;;;24.00;1.00;;;;;;5042752;28;20539;-78
2021/09/27 13:08:45;;;;;;;11.17;10.20;;;24.30;1.00;;;;;;5051878;28;20467;-79
2021/09/27 13:11:32;;;;;;;11.97;10.97;;;24.30;1.00;;;;;;5056424;28;20510;-79
2021/09/27 13:14:06;;;;;;;12.30;11.20;;;24.30;1.00;;;;;;5053227;28;20456;-79
2021/09/27 13:16:36;;;;;;;13.90;12.40;;;24.40;1.00;;;;;;5050569;28;20599;-78
2021/09/27 13:19:06;;;;;;;12.93;11.40;;;24.40;1.00;;;;;;5053247;28;20491;-77
2021/09/27 13:21:44;;;;;;;12.40;11.20;;;24.50;1.00;;;;;;5034600;28;20449;-78
2021/09/27 13:24:14;;;;;;;13.17;11.93;;;24.50;1.00;;;;;;5032683;28;20431;-78
2021/09/27 13:26:51;;;;;;;13.73;12.40;;;24.70;1.00;;;;;;5059046;28;21091;-78
2021/09/27 13:29:35;;;;;;;12.40;11.40;;;24.80;1.00;;;;;;5034466;28;20449;-77
2021/09/27 13:32:04;;;;;;;11.87;10.77;;;24.80;1.00;;;;;;5050229;28;21066;-77
2021/09/27 13:34:40;;;;;;;11.77;10.70;;;24.70;1.00;;;;;;5052080;28;20459;-77
2021/09/27 13:37:26;;;;;;;13.13;11.93;;;24.50;1.00;;;;;;5061950;28;20422;-78
2021/09/27 13:39:58;;;;;;;11.67;10.57;;;24.50;1.00;;;;;;5053249;28;20455;-77
2021/09/27 13:42:41;;;;;;;12.10;10.97;;;24.50;1.00;;;;;;5052899;28;20522;-77
2021/09/27 13:45:14;;;;;;;13.03;11.83;;;24.30;1.00;;;;;;5057211;28;21497;-77
2021/09/27 13:47:41;;;;;;;12.03;11.03;;;24.30;1.00;;;;;;5062011;28;20422;-78
2021/09/27 13:50:08;;;;;;;12.67;11.07;;;24.20;1.00;;;;;;5042973;28;20510;-78
2021/09/27 13:52:42;;;;;;;12.60;11.40;;;24.20;1.00;;;;;;5039436;28;20451;-77
2021/09/27 13:55:12;;;;;;;12.03;11.03;;;24.10;1.00;;;;;;5037653;28;20529;-77
2021/09/27 13:57:38;;;;;;;13.00;11.80;;;24.20;1.00;;;;;;5045209;28;20527;-77